Time;durP1;ratioP1;P1;durP2;ratioP2;P2;SDS_P1;SDS_P2;PMS_P1;PMS_P2;Temp;Humidity;BMP_temperature;BMP_pressure;BME280_temperature;BME280_humidity;BME280_pressure;Samples;Min_cycle;Max_cycle;Signal;HPM_P1;HPM_P2
2023/06/14 00:01:34;;;;;;;0.25;0.25;;;;;;;12.21;100.00;99538.72;5006318;28;20116;-93
2023/06/14 00:04:04;;;;;;;0.32;0.32;;;;;;;12.13;100.00;99533.44;4993467;28;20029;-93
2023/06/14 00:06:30;;;;;;;0.68;0.68;;;;;;;11.98;100.00;99543.59;5017362;28;20065;-93
2023/06/14 00:08:56;;;;;;;0.20;0.20;;;;;;;12.19;100.00;99574.56;4987767;28;20083;-93
2023/06/14 00:11:21;;;;;;;0.03;0.03;;;;;;;11.86;100.00;99530.59;5022589;28;20438;-93
2023/06/14 00:13:47;;;;;;;0.00;0.00;;;;;;;11.98;100.00;99549.16;5017389;28;20041;-93
2023/06/14 00:16:12;;;;;;;0.38;0.38;;;;;;;12.15;100.00;99581.03;5024116;28;20035;-93
2023/06/14 00:18:38;;;;;;;1.00;0.65;;;;;;;11.93;100.00;99549.75;5012439;28;20500;-93
2023/06/14 00:21:05;;;;;;;0.60;0.47;;;;;;;11.88;100.00;99539.25;5006802;28;20081;-93
2023/06/14 00:23:30;;;;;;;0.28;0.20;;;;;;;11.89;100.00;99549.13;4987140;28;1424722;-93
2023/06/14 00:25:56;;;;;;;0.20;0.20;;;;;;;11.89;100.00;99556.72;5015403;28;20037;-93
2023/06/14 00:28:22;;;;;;;0.38;0.38;;;;;;;12.07;100.00;99563.09;5000264;28;20031;-94
2023/06/14 00:30:48;;;;;;;1.70;0.35;;;;;;;12.18;100.00;99570.22;5009420;28;20033;-94
2023/06/14 00:33:13;;;;;;;0.13;0.13;;;;;;;12.12;100.00;99548.59;5021592;28;20354;-92
2023/06/14 00:35:39;;;;;;;0.45;0.45;;;;;;;12.24;100.00;99555.25;5033414;28;20034;-92
2023/06/14 00:38:05;;;;;;;0.65;0.55;;;;;;;12.30;100.00;99558.19;5030306;28;20154;-92
2023/06/14 00:40:32;;;;;;;0.20;0.20;;;;;;;12.28;100.00;99563.47;5043827;28;20028;-93
2023/06/14 00:42:57;;;;;;;0.45;0.45;;;;;;;12.27;100.00;99564.69;5015695;28;20047;-93
2023/06/14 00:45:23;;;;;;;0.05;0.05;;;;;;;12.27;100.00;99570.25;5007631;28;20075;-94
2023/06/14 00:47:52;;;;;;;0.38;0.38;;;;;;;12.08;100.00;99550.75;5035616;28;20047;-94
2023/06/14 00:50:20;;;;;;;0.25;0.20;;;;;;;12.24;100.00;99565.59;5021532;28;20389;-94
2023/06/14 00:52:45;;;;;;;1.13;0.60;;;;;;;12.28;100.00;99567.03;5022549;28;20029;-93
2023/06/14 00:55:11;;;;;;;1.20;0.35;;;;;;;12.02;100.00;99537.88;4980584;28;20043;-94
2023/06/14 00:57:37;;;;;;;0.10;0.10;;;;;;;12.09;100.00;99570.97;5021761;28;20558;-94
2023/06/14 01:00:08;;;;;;;0.30;0.20;;;;;;;11.87;100.00;99542.47;5006313;28;20508;-93
2023/06/14 01:02:36;;;;;;;0.00;0.00;;;;;;;11.83;100.00;99553.75;5012894;28;20125;-93
2023/06/14 01:05:02;;;;;;;0.15;0.15;;;;;;;11.59;100.00;99531.22;4996426;28;20068;-93
2023/06/14 01:07:41;;;;;;;1.00;0.35;;;;;;;11.85;100.00;99567.19;5005896;28;20053;-94
2023/06/14 01:10:28;;;;;;;0.20;0.20;;;;;;;11.66;100.00;99538.50;5027737;28;20025;-93
2023/06/14 01:13:10;;;;;;;0.00;0.00;;;;;;;11.74;100.00;99548.13;5041112;28;20055;-94
2023/06/14 01:15:36;;;;;;;0.60;0.60;;;;;;;11.83;100.00;99559.28;5020174;28;20041;-93
2023/06/14 01:18:02;;;;;;;0.13;0.13;;;;;;;11.84;100.00;99555.28;5008988;28;20029;-93
2023/06/14 01:20:30;;;;;;;0.52;0.35;;;;;;;11.78;100.00;99540.44;5030504;28;20075;-93
2023/06/14 01:22:56;;;;;;;0.82;0.82;;;;;;;11.51;100.00;99506.97;4999740;28;20488;-93
2023/06/14 01:25:23;;;;;;;0.85;0.70;;;;;;;11.60;100.00;99504.22;5006409;28;20445;-94
2023/06/14 01:28:00;;;;;;;1.17;0.57;;;;;;;11.61;100.00;99536.31;4995828;28;20041;-92
2023/06/14 01:30:27;;;;;;;0.47;0.47;;;;;;;11.58;100.00;99538.00;5031693;28;20033;-93
2023/06/14 01:32:54;;;;;;;1.60;1.50;;;;;;;11.55;100.00;99538.16;5025736;28;20029;-94
2023/06/14 01:35:20;;;;;;;0.45;0.40;;;;;;;11.43;100.00;99530.69;5013306;28;20372;-93
2023/06/14 01:37:47;;;;;;;0.10;0.10;;;;;;;11.24;100.00;99500.03;5032714;28;20215;-94
2023/06/14 01:40:14;;;;;;;0.30;0.30;;;;;;;11.36;100.00;99525.41;5034298;28;20034;-92
2023/06/14 01:42:40;;;;;;;0.43;0.43;;;;;;;11.31;100.00;99523.22;5016356;28;20187;-94
2023/06/14 01:45:06;;;;;;;2.03;1.10;;;;;;;11.22;100.00;99510.03;5033303;28;20584;-92
2023/06/14 01:47:32;;;;;;;0.22;0.22;;;;;;;11.19;100.00;99517.28;5002217;28;20033;-93
2023/06/14 01:49:58;;;;;;;3.03;1.13;;;;;;;11.18;100.00;99526.84;5017135;28;20188;-93
2023/06/14 01:52:24;;;;;;;0.28;0.28;;;;;;;11.21;100.00;99530.69;5023383;28;20140;-93
2023/06/14 01:54:50;;;;;;;0.10;0.10;;;;;;;11.23;100.00;99529.03;5033284;28;20029;-93
2023/06/14 01:57:16;;;;;;;2.50;1.27;;;;;;;11.23;100.00;99529.03;5027673;28;20453;-93
2023/06/14 01:59:42;;;;;;;0.22;0.22;;;;;;;11.22;100.00;99532.25;5023962;28;20037;-93
2023/06/14 02:02:08;;;;;;;0.10;0.10;;;;;;;11.22;100.00;99526.69;5021234;28;20515;-93
2023/06/14 02:04:34;;;;;;;1.27;1.17;;;;;;;11.05;100.00;99506.69;5000945;28;20041;-93
2023/06/14 02:06:59;;;;;;;1.40;1.30;;;;;;;11.25;100.00;99548.00;5014424;28;20582;-93
2023/06/14 02:09:25;;;;;;;0.82;0.82;;;;;;;11.10;100.00;99533.88;5015057;28;20454;-93
2023/06/14 02:11:53;;;;;;;0.30;0.30;;;;;;;11.14;100.00;99548.41;5041167;28;20021;-92
2023/06/14 02:14:20;;;;;;;0.65;0.65;;;;;;;11.06;100.00;99524.13;5018974;28;20488;-94
2023/06/14 02:16:48;;;;;;;1.38;0.93;;;;;;;11.11;100.00;99521.56;5030933;28;20049;-92
2023/06/14 02:19:18;;;;;;;0.40;0.30;;;;;;;11.15;100.00;99532.53;5017029;28;20039;-93
2023/06/14 02:21:44;;;;;;;0.00;0.00;;;;;;;11.02;100.00;99518.72;5023415;28;20033;-93
2023/06/14 02:24:12;;;;;;;0.00;0.00;;;;;;;11.14;100.00;99537.31;5017290;28;20131;-92
2023/06/14 02:26:38;;;;;;;0.32;0.32;;;;;;;11.13;100.00;99518.31;5002008;28;20528;-92
2023/06/14 02:29:09;;;;;;;0.10;0.10;;;;;;;11.22;100.00;99527.47;4996837;28;20065;-92
2023/06/14 02:31:36;;;;;;;0.95;0.95;;;;;;;11.31;100.00;99523.97;5010308;28;20382;-93
2023/06/14 02:34:01;;;;;;;0.50;0.50;;;;;;;11.20;100.00;99512.50;5001317;28;20040;-93
2023/06/14 02:36:29;;;;;;;1.52;1.25;;;;;;;11.26;100.00;99513.47;5016695;28;20025;-93
2023/06/14 02:38:57;;;;;;;0.40;0.40;;;;;;;11.32;100.00;99520.00;5020631;28;20029;-93
2023/06/14 02:41:24;;;;;;;0.00;0.00;;;;;;;11.23;100.00;99506.03;4994915;28;20410;-93
2023/06/14 02:43:53;;;;;;;2.75;1.27;;;;;;;11.33;100.00;99510.41;4996809;28;20060;-93
2023/06/14 02:46:18;;;;;;;0.28;0.28;;;;;;;11.39;100.00;99530.03;5030590;28;20049;-92
2023/06/14 02:48:45;;;;;;;0.20;0.20;;;;;;;11.43;100.00;99509.25;5018285;28;20199;-92
2023/06/14 02:51:10;;;;;;;3.72;0.65;;;;;;;11.47;100.00;99517.44;5018496;28;20151;-93
2023/06/14 02:53:36;;;;;;;25.02;1.67;;;;;;;11.32;100.00;99508.09;5025036;28;20116;-93
2023/06/14 02:56:03;;;;;;;0.10;0.10;;;;;;;11.36;100.00;99514.28;5023867;28;20050;-93
2023/06/14 02:58:29;;;;;;;0.00;0.00;;;;;;;11.50;100.00;99524.84;5004968;28;20125;-93
2023/06/14 03:00:55;;;;;;;0.75;0.43;;;;;;;11.51;100.00;99520.84;4989070;28;20195;-93
2023/06/14 03:03:24;;;;;;;0.00;0.00;;;;;;;11.52;100.00;99512.06;5019326;28;20029;-93
2023/06/14 03:05:54;;;;;;;1.88;0.50;;;;;;;11.58;100.00;99528.91;5010267;28;20124;-95
2023/06/14 03:08:27;;;;;;;2.45;0.77;;;;;;;11.59;100.00;99522.13;5038555;28;20585;-93
2023/06/14 03:10:56;;;;;;;0.10;0.10;;;;;;;11.66;100.00;99525.38;5009729;28;20021;-93
2023/06/14 03:13:23;;;;;;;0.75;0.75;;;;;;;11.82;100.00;99535.50;5003632;28;20026;-94
2023/06/14 03:15:50;;;;;;;0.50;0.50;;;;;;;11.82;100.00;99527.19;5000936;28;20431;-94
2023/06/14 03:18:16;;;;;;;0.35;0.35;;;;;;;11.93;100.00;99529.53;5027984;28;20030;-93
2023/06/14 03:20:45;;;;;;;0.93;0.38;;;;;;;12.00;100.00;99524.47;5037330;28;20042;-92
2023/06/14 03:23:12;;;;;;;0.55;0.55;;;;;;;12.04;100.00;99519.53;5018267;28;20049;-93
2023/06/14 03:25:40;;;;;;;2.17;0.93;;;;;;;11.91;100.00;99499.41;4983748;28;20051;-93
2023/06/14 03:28:06;;;;;;;0.68;0.68;;;;;;;11.82;100.00;99506.94;4999080;28;20034;-93
2023/06/14 03:30:32;;;;;;;0.30;0.30;;;;;;;11.97;100.00;99541.28;5006678;28;20124;-93
2023/06/14 03:33:00;;;;;;;0.22;0.22;;;;;;;11.81;100.00;99522.09;5003428;28;20048;-94
2023/06/14 03:35:28;;;;;;;0.13;0.13;;;;;;;11.80;100.00;99532.44;4982662;28;20087;-93
2023/06/14 03:37:54;;;;;;;0.45;0.45;;;;;;;11.87;100.00;99537.69;4997418;28;20064;-94
2023/06/14 03:40:21;;;;;;;0.15;0.15;;;;;;;11.79;100.00;99530.88;4979001;28;20062;-93
2023/06/14 03:42:50;;;;;;;1.65;0.30;;;;;;;11.82;100.00;99527.19;5002198;28;20137;-93
2023/06/14 03:45:16;;;;;;;0.63;0.63;;;;;;;11.95;100.00;99543.75;4979993;28;20034;-92
2023/06/14 03:47:41;;;;;;;0.40;0.40;;;;;;;11.99;100.00;99538.81;5005079;28;20030;-93
2023/06/14 03:50:08;;;;;;;0.13;0.13;;;;;;;12.20;100.00;99556.63;4983157;28;20064;-93
2023/06/14 03:52:34;;;;;;;0.38;0.35;;;;;;;12.16;100.00;99520.66;4977780;28;20109;-93
2023/06/14 03:55:00;;;;;;;0.10;0.10;;;;;;;12.15;100.00;99531.00;5006097;28;20132;-93
2023/06/14 03:57:26;;;;;;;0.28;0.28;;;;;;;12.34;100.00;99558.81;5001368;28;20037;-94
2023/06/14 03:59:54;;;;;;;0.75;0.75;;;;;;;12.06;100.00;99517.06;4970148;28;20048;-93
2023/06/14 04:02:19;;;;;;;0.55;0.55;;;;;;;12.27;100.00;99559.13;5012559;28;20038;-93
2023/06/14 04:04:45;;;;;;;0.10;0.10;;;;;;;12.36;100.00;99575.84;5013975;28;20125;-93
2023/06/14 04:07:12;;;;;;;0.13;0.13;;;;;;;12.35;100.00;99577.06;5018719;28;20076;-93
2023/06/14 04:09:39;;;;;;;0.45;0.45;;;;;;;12.32;100.00;99583.56;5018474;28;20028;-94
2023/06/14 04:12:05;;;;;;;0.32;0.32;;;;;;;12.26;100.00;99568.69;4999427;28;20060;-92
2023/06/14 04:14:34;;;;;;;0.00;0.00;;;;;;;12.36;100.00;99578.63;5014903;28;20033;-92
2023/06/14 04:17:00;;;;;;;0.47;0.47;;;;;;;12.31;100.00;99568.09;5029194;28;20041;-92
2023/06/14 04:19:27;;;;;;;0.52;0.52;;;;;;;12.49;100.00;99591.19;5007846;28;20064;-93
2023/06/14 04:21:53;;;;;;;0.40;0.35;;;;;;;12.59;100.00;99597.50;4992353;28;20797;-93
2023/06/14 04:24:19;;;;;;;0.00;0.00;;;;;;;12.59;100.00;99581.59;5009556;28;20527;-93
2023/06/14 04:26:49;;;;;;;0.70;0.57;;;;;;;12.71;100.00;99582.69;5008511;28;20034;-94
2023/06/14 04:29:16;;;;;;;0.45;0.45;;;;;;;12.89;100.00;99593.84;5008473;28;20061;-90
2023/06/14 04:31:45;;;;;;;1.35;1.08;;;;;;;12.84;100.00;99576.97;5026714;28;20497;-90
2023/06/14 04:34:16;;;;;;;0.45;0.20;;;;;;;13.07;100.00;99588.25;5010645;28;20029;-90
2023/06/14 04:36:52;;;;;;;0.05;0.05;;;;;;;13.13;100.00;99585.66;5035697;28;20053;-91
2023/06/14 04:42:07;;;;;;;0.65;0.20;;;;;;;13.33;100.00;99591.53;5003892;28;20046;-90
2023/06/14 04:44:34;;;;;;;0.20;0.20;;;;;;;13.40;100.00;99588.41;5002446;28;20260;-91
2023/06/14 04:47:02;;;;;;;0.63;0.43;;;;;;;13.53;100.00;99589.03;5009419;28;20033;-90
2023/06/14 04:49:32;;;;;;;0.60;0.50;;;;;;;13.67;100.00;99593.16;5012029;28;20381;-91
2023/06/14 04:51:59;;;;;;;0.17;0.17;;;;;;;13.79;100.00;99597.75;5022082;28;20387;-91
2023/06/14 04:54:27;;;;;;;0.20;0.20;;;;;;;13.82;100.00;99580.13;5027910;28;20121;-90
2023/06/14 04:56:54;;;;;;;0.22;0.22;;;;;;;13.91;100.00;99594.00;5017164;28;20046;-90
2023/06/14 04:59:25;;;;;;;0.20;0.20;;;;;;;13.91;100.00;99594.00;5009419;28;20026;-90
2023/06/14 05:01:52;;;;;;;0.57;0.45;;;;;;;14.02;100.00;99588.72;5011333;28;20051;-89
2023/06/14 05:04:19;;;;;;;0.10;0.10;;;;;;;14.05;100.00;99592.56;5025403;28;20038;-90
2023/06/14 05:06:45;;;;;;;0.52;0.52;;;;;;;14.02;100.00;99588.72;5014771;28;20026;-89
2023/06/14 05:09:11;;;;;;;0.08;0.08;;;;;;;13.98;100.00;99599.25;5018622;28;20501;-89
2023/06/14 05:11:37;;;;;;;0.40;0.40;;;;;;;13.97;100.00;99603.28;5025730;28;20030;-89
2023/06/14 05:14:03;;;;;;;1.65;0.60;;;;;;;13.82;100.00;99596.84;5008445;28;20161;-89
2023/06/14 05:16:29;;;;;;;0.80;0.75;;;;;;;13.74;100.00;99611.56;5016884;28;20037;-89
2023/06/14 05:18:55;;;;;;;0.30;0.30;;;;;;;13.49;100.00;99607.91;5029586;28;20072;-91
2023/06/14 05:21:21;;;;;;;0.30;0.30;;;;;;;13.65;100.00;99601.22;5014483;28;20058;-91
2023/06/14 05:23:46;;;;;;;0.38;0.30;;;;;;;13.64;100.00;99613.59;5005778;28;20046;-91
2023/06/14 05:26:12;;;;;;;0.22;0.22;;;;;;;13.70;100.00;99616.53;4969475;28;20091;-92
2023/06/14 05:28:38;;;;;;;0.30;0.30;;;;;;;13.75;100.00;99613.88;5013423;28;20133;-89
2023/06/14 05:31:03;;;;;;;0.17;0.17;;;;;;;13.71;100.00;99598.59;4977325;28;20168;-92
2023/06/14 05:33:31;;;;;;;0.20;0.20;;;;;;;13.95;100.00;99605.75;4976842;28;20030;-92
2023/06/14 05:35:57;;;;;;;0.40;0.40;;;;;;;14.11;100.00;99620.59;4987993;28;20038;-91
2023/06/14 05:38:22;;;;;;;0.75;0.75;;;;;;;14.26;100.00;99618.66;4975033;28;20569;-92
2023/06/14 05:40:47;;;;;;;0.60;0.57;;;;;;;14.34;100.00;99605.91;4989341;28;20115;-92
2023/06/14 05:43:13;;;;;;;0.38;0.38;;;;;;;14.45;100.00;99620.91;4970132;28;20405;-91
2023/06/14 05:45:39;;;;;;;0.40;0.40;;;;;;;14.44;100.00;99604.63;4974892;28;20050;-91
2023/06/14 05:48:05;;;;;;;0.90;0.90;;;;;;;14.52;100.00;99603.03;4984513;28;20049;-92
2023/06/14 05:50:33;;;;;;;0.00;0.00;;;;;;;14.81;100.00;99619.91;5015540;28;20033;-94
2023/06/14 05:52:59;;;;;;;0.43;0.43;;;;;;;14.78;100.00;99600.53;4970115;28;20058;-93
2023/06/14 05:55:25;;;;;;;0.35;0.35;;;;;;;14.80;100.00;99604.41;4976312;28;20068;-92
2023/06/14 05:57:51;;;;;;;0.43;0.43;;;;;;;15.06;100.00;99615.06;4988192;28;20328;-92
2023/06/14 06:00:17;;;;;;;0.65;0.65;;;;;;;15.16;100.00;99616.56;4989178;28;20053;-93
2023/06/14 06:02:43;;;;;;;0.68;0.68;;;;;;;15.21;100.00;99604.69;4989827;28;20026;-93
2023/06/14 06:05:10;;;;;;;0.50;0.50;;;;;;;15.58;100.00;99636.69;4973845;28;20456;-91
2023/06/14 06:07:37;;;;;;;0.93;0.55;;;;;;;15.55;100.00;99587.31;4980348;28;20069;-93
2023/06/14 06:10:03;;;;;;;0.70;0.70;;;;;;;15.98;100.00;99636.09;4994426;28;20129;-92
2023/06/14 06:12:29;;;;;;;0.43;0.43;;;;;;;16.28;100.00;99628.44;4997419;28;20034;-92
2023/06/14 06:14:55;;;;;;;0.55;0.38;;;;;;;16.49;100.00;99624.44;5006973;28;20633;-91
2023/06/14 06:17:20;;;;;;;0.55;0.55;;;;;;;16.79;100.00;99617.47;4999921;28;20034;-94
2023/06/14 06:19:46;;;;;;;2.45;0.60;;;;;;;17.00;100.00;99623.09;4993759;28;20053;-93
2023/06/14 06:22:11;;;;;;;0.68;0.68;;;;;;;16.85;100.00;99609.16;5008044;28;20049;-93
2023/06/14 06:24:37;;;;;;;1.25;0.80;;;;;;;17.07;100.00;99628.25;5004489;28;20133;-93
2023/06/14 06:27:03;;;;;;;0.30;0.30;;;;;;;17.06;100.00;99621.13;5013282;28;20049;-93
2023/06/14 06:29:29;;;;;;;0.85;0.85;;;;;;;17.17;100.00;99624.06;4989121;28;20073;-92
2023/06/14 06:31:56;;;;;;;0.22;0.22;;;;;;;17.48;100.00;99640.97;5016749;28;20038;-91
2023/06/14 06:34:21;;;;;;;1.05;0.75;;;;;;;17.85;100.00;99648.75;5009362;28;20049;-93
2023/06/14 06:36:47;;;;;;;1.10;0.85;;;;;;;18.14;100.00;99645.69;4975962;28;20038;-92
2023/06/14 06:39:14;;;;;;;0.10;0.10;;;;;;;18.42;100.00;99638.25;4957173;28;20045;-93
2023/06/14 06:41:40;;;;;;;0.75;0.75;;;;;;;18.60;100.00;99651.91;4986796;28;20220;-91
2023/06/14 06:44:06;;;;;;;1.70;0.57;;;;;;;18.86;100.00;99653.84;5009511;28;20030;-93
2023/06/14 06:46:33;;;;;;;0.52;0.52;;;;;;;18.96;100.00;99649.56;4973163;28;20035;-93
2023/06/14 06:48:59;;;;;;;1.27;0.85;;;;;;;18.82;100.00;99630.84;4973629;28;20121;-92
2023/06/14 06:51:25;;;;;;;0.40;0.40;;;;;;;19.01;100.00;99651.63;4988826;28;20525;-93
2023/06/14 06:53:54;;;;;;;0.65;0.60;;;;;;;19.03;100.00;99635.03;4969318;28;20504;-93
2023/06/14 06:56:23;;;;;;;0.98;0.70;;;;;;;19.39;100.00;99656.63;5005386;28;20038;-92
2023/06/14 06:58:51;;;;;;;8.10;0.73;;;;;;;19.41;100.00;99648.44;4983276;28;20029;-93
2023/06/14 07:01:18;;;;;;;1.27;0.80;;;;;;;19.66;100.00;99671.28;4974755;28;20168;-93
2023/06/14 07:03:44;;;;;;;0.45;0.30;;;;;;;20.04;100.00;99650.88;4973803;28;20046;-94
2023/06/14 07:06:10;;;;;;;2.75;1.58;;;;;;;20.22;100.00;99647.53;5007878;28;20037;-93
2023/06/14 07:08:36;;;;;;;0.25;0.25;;;;;;;20.60;100.00;99662.13;4982944;28;20088;-93
2023/06/14 07:11:02;;;;;;;0.60;0.60;;;;;;;20.84;94.78;99651.06;4988759;28;20040;-92
2023/06/14 07:13:27;;;;;;;1.35;0.50;;;;;;;21.27;86.86;99660.66;5008105;28;20041;-92
2023/06/14 07:16:02;;;;;;;2.08;0.47;;;;;;;21.45;85.28;99647.25;4975903;28;20068;-92
2023/06/14 07:18:30;;;;;;;1.23;0.60;;;;;;;21.63;77.78;99646.63;4998122;28;20084;-93
2023/06/14 07:20:56;;;;;;;1.02;0.60;;;;;;;21.93;81.70;99647.47;5021209;28;20397;-93
2023/06/14 07:23:23;;;;;;;1.75;0.85;;;;;;;22.34;73.70;99667.19;5003106;28;20057;-94
2023/06/14 07:25:48;;;;;;;0.25;0.22;;;;;;;22.83;65.53;99670.84;5022681;28;20045;-92
2023/06/14 07:28:14;;;;;;;0.20;0.20;;;;;;;22.97;65.32;99669.63;5008022;28;20045;-95
2023/06/14 07:30:41;;;;;;;3.10;0.98;;;;;;;23.24;64.47;99682.72;4995011;28;20065;-94
2023/06/14 07:33:08;;;;;;;0.45;0.32;;;;;;;22.99;63.82;99658.56;5023229;28;20036;-93
2023/06/14 07:35:34;;;;;;;0.30;0.30;;;;;;;23.03;65.77;99684.50;4999178;28;20053;-94
2023/06/14 07:37:59;;;;;;;0.77;0.63;;;;;;;22.59;65.31;99662.31;5018835;28;20030;-94
2023/06/14 07:40:25;;;;;;;1.13;0.50;;;;;;;22.37;66.98;99668.16;5009837;28;20105;-93
2023/06/14 07:42:50;;;;;;;1.55;1.45;;;;;;;22.29;69.20;99674.41;5025804;28;20030;-93
2023/06/14 07:45:16;;;;;;;0.65;0.60;;;;;;;22.09;63.49;99654.28;5021710;28;20180;-94
2023/06/14 07:47:42;;;;;;;0.05;0.05;;;;;;;21.99;63.21;99665.16;5024581;28;20034;-94
2023/06/14 07:50:08;;;;;;;0.47;0.40;;;;;;;21.94;61.15;99682.13;5016074;28;20445;-93
2023/06/14 07:52:36;;;;;;;0.75;0.55;;;;;;;21.70;58.57;99677.91;5029916;28;20028;-94
2023/06/14 07:55:01;;;;;;;0.75;0.70;;;;;;;21.63;61.05;99669.22;5012030;28;20033;-92
2023/06/14 07:57:28;;;;;;;1.45;0.65;;;;;;;21.54;60.45;99706.22;5017050;28;20334;-94
2023/06/14 07:59:54;;;;;;;1.05;0.90;;;;;;;21.14;57.59;99673.81;5037274;28;20045;-92
2023/06/14 08:02:19;;;;;;;0.80;0.80;;;;;;;20.97;59.15;99693.56;5027590;28;20064;-91
2023/06/14 08:04:46;;;;;;;0.65;0.52;;;;;;;20.86;61.69;99699.25;5038892;28;20531;-91
2023/06/14 08:07:12;;;;;;;0.52;0.52;;;;;;;20.95;63.75;99694.06;5013918;28;20051;-93
2023/06/14 08:09:38;;;;;;;1.27;1.00;;;;;;;21.10;61.94;99679.69;5007589;28;20029;-94
2023/06/14 08:12:09;;;;;;;0.30;0.30;;;;;;;21.21;61.97;99678.91;5009532;28;20088;-92
2023/06/14 08:14:39;;;;;;;0.40;0.25;;;;;;;21.49;61.74;99698.53;5034225;28;20029;-94
2023/06/14 08:17:05;;;;;;;0.52;0.43;;;;;;;21.29;57.08;99680.66;5018732;28;20043;-92
2023/06/14 08:19:33;;;;;;;0.35;0.35;;;;;;;21.37;58.46;99704.22;5015840;28;20115;-92
2023/06/14 08:21:59;;;;;;;1.20;0.50;;;;;;;21.00;57.12;99683.31;5026398;28;20034;-91
2023/06/14 08:24:26;;;;;;;0.80;0.80;;;;;;;21.09;57.40;99700.72;4997603;28;20143;-92
2023/06/14 08:26:56;;;;;;;0.40;0.40;;;;;;;21.09;60.43;99666.88;5047093;28;20044;-92
2023/06/14 08:29:22;;;;;;;1.13;0.68;;;;;;;20.90;60.65;99694.13;5036603;28;20047;-93
2023/06/14 08:31:48;;;;;;;1.67;0.50;;;;;;;20.87;60.21;99678.97;5072268;28;20029;-92
2023/06/14 08:34:13;;;;;;;0.52;0.38;;;;;;;20.87;61.04;99695.13;5012046;28;20114;-92
2023/06/14 08:36:39;;;;;;;0.25;0.20;;;;;;;20.82;62.10;99693.88;5029774;28;20245;-91
2023/06/14 08:39:05;;;;;;;5.68;1.20;;;;;;;21.02;63.86;99673.06;5012456;28;20022;-93
2023/06/14 08:41:32;;;;;;;0.32;0.32;;;;;;;21.28;62.04;99667.06;5006659;28;20394;-92
2023/06/14 08:43:58;;;;;;;0.47;0.20;;;;;;;21.44;58.91;99679.56;5017667;28;20385;-92
2023/06/14 08:46:27;;;;;;;0.45;0.43;;;;;;;21.57;57.04;99689.00;5001163;28;20021;-94
2023/06/14 08:48:53;;;;;;;0.57;0.57;;;;;;;21.46;56.50;99679.81;5014497;28;20046;-94
2023/06/14 08:51:21;;;;;;;1.15;0.85;;;;;;;21.65;54.38;99677.91;5024655;28;20056;-94
2023/06/14 08:53:52;;;;;;;0.35;0.35;;;;;;;22.16;53.96;99696.09;5017118;28;20083;-91
2023/06/14 08:56:20;;;;;;;1.35;0.90;;;;;;;22.87;52.94;99688.28;5020819;28;20061;-93
2023/06/14 08:58:48;;;;;;;0.57;0.52;;;;;;;23.47;51.36;99707.91;4997482;28;20084;-92
2023/06/14 09:01:14;;;;;;;0.75;0.30;;;;;;;23.87;48.56;99708.91;5023497;28;20131;-90
2023/06/14 09:03:44;;;;;;;0.17;0.17;;;;;;;24.05;47.57;99716.63;5030109;28;20033;-92
2023/06/14 09:06:13;;;;;;;0.80;0.73;;;;;;;24.33;47.93;99704.91;5032022;28;20029;-93
2023/06/14 09:08:43;;;;;;;0.43;0.43;;;;;;;24.69;47.17;99708.16;5026679;28;20048;-93
2023/06/14 09:11:12;;;;;;;0.38;0.38;;;;;;;24.59;45.00;99710.63;5028985;28;20037;-93
2023/06/14 09:13:38;;;;;;;0.60;0.43;;;;;;;24.79;45.33;99704.31;5025843;28;20041;-92
2023/06/14 09:16:04;;;;;;;0.30;0.30;;;;;;;25.31;45.80;99708.53;5015530;28;20033;-92
2023/06/14 09:18:36;;;;;;;0.63;0.32;;;;;;;25.82;43.33;99718.31;5030985;28;20033;-94
2023/06/14 09:21:02;;;;;;;2.25;0.43;;;;;;;25.78;42.13;99709.34;5009879;28;20038;-90
2023/06/14 09:23:27;;;;;;;0.35;0.32;;;;;;;25.53;41.46;99693.88;5014638;28;20049;-93
2023/06/14 09:25:53;;;;;;;0.40;0.40;;;;;;;25.21;42.79;99684.72;5042471;28;20488;-93
2023/06/14 09:28:22;;;;;;;0.30;0.30;;;;;;;25.50;42.50;99706.31;5016564;28;20069;-94
2023/06/14 09:30:48;;;;;;;0.80;0.30;;;;;;;25.26;42.92;99709.41;5010903;28;20029;-93
2023/06/14 09:33:17;;;;;;;1.38;0.55;;;;;;;25.00;42.61;99716.59;5019458;28;20099;-94
2023/06/14 09:35:48;;;;;;;0.38;0.38;;;;;;;24.97;43.34;99714.09;5034165;28;20041;-94
2023/06/14 09:38:13;;;;;;;0.28;0.28;;;;;;;25.04;43.81;99716.28;5016606;28;20049;-93
2023/06/14 09:40:39;;;;;;;0.68;0.60;;;;;;;24.52;43.60;99674.41;5026119;28;20026;-94
2023/06/14 09:43:08;;;;;;;0.50;0.32;;;;;;;24.90;44.34;99698.50;5032341;28;20049;-91
2023/06/14 09:45:35;;;;;;;0.45;0.32;;;;;;;25.32;43.70;99698.69;5026579;28;20073;-92
2023/06/14 09:48:02;;;;;;;0.32;0.32;;;;;;;25.39;43.25;99715.09;5033324;28;20053;-93
2023/06/14 09:50:27;;;;;;;0.40;0.32;;;;;;;25.50;41.80;99724.13;5004011;28;20092;-93
2023/06/14 09:52:59;;;;;;;1.25;1.15;;;;;;;25.26;42.66;99720.75;5030069;28;20504;-94
2023/06/14 09:55:29;;;;;;;0.95;0.85;;;;;;;25.41;42.92;99720.97;5032036;28;20489;-94
2023/06/14 09:57:55;;;;;;;0.28;0.28;;;;;;;25.34;43.44;99718.78;5021634;28;20177;-92
2023/06/14 10:00:23;;;;;;;0.63;0.60;;;;;;;25.49;43.10;99722.59;5042497;28;20044;-93
2023/06/14 10:02:55;;;;;;;0.98;0.90;;;;;;;25.32;43.58;99732.75;5007312;28;20045;-92
2023/06/14 10:05:21;;;;;;;0.30;0.30;;;;;;;25.18;43.65;99734.84;5021910;28;20077;-92
2023/06/14 10:07:50;;;;;;;2.10;0.40;;;;;;;24.78;51.88;99734.03;5008816;28;20034;-93
2023/06/14 10:10:16;;;;;;;0.40;0.40;;;;;;;24.55;56.97;99722.28;5038442;28;20045;-94
2023/06/14 10:12:42;;;;;;;0.50;0.50;;;;;;;23.98;58.10;99723.69;5036028;28;20025;-93
2023/06/14 10:15:17;;;;;;;3.13;0.57;;;;;;;23.79;60.66;99691.78;5023688;28;20052;-93
2023/06/14 10:17:50;;;;;;;0.30;0.30;;;;;;;23.88;61.88;99739.53;5006045;28;20050;-94
2023/06/14 10:20:27;;;;;;;0.98;0.65;;;;;;;23.21;64.98;99726.19;5008120;28;20046;-94
2023/06/14 10:23:24;;;;;;;0.90;0.60;;;;;;;23.07;65.41;99726.63;5022865;28;20125;-92
2023/06/14 10:25:50;;;;;;;0.57;0.57;;;;;;;22.77;67.47;99723.84;5016618;28;20410;-93
2023/06/14 10:28:22;;;;;;;1.20;1.00;;;;;;;22.78;69.74;99753.66;5051591;28;20044;-94
2023/06/14 10:31:04;;;;;;;0.57;0.50;;;;;;;22.26;69.31;99714.25;5042529;28;20068;-93
2023/06/14 10:33:30;;;;;;;0.70;0.70;;;;;;;22.23;71.39;99735.84;5069725;28;20040;-94
2023/06/14 10:36:34;;;;;;;4.03;1.40;;;;;;;22.22;73.38;99748.44;4993598;28;20271;-93
2023/06/14 10:39:20;;;;;;;0.30;0.30;;;;;;;22.11;74.29;99759.03;4955106;28;20507;-94
2023/06/14 10:41:54;;;;;;;0.25;0.25;;;;;;;22.04;76.72;99748.31;5025393;28;20135;-94
2023/06/14 10:44:20;;;;;;;3.60;1.25;;;;;;;21.93;78.22;99751.94;5007672;28;20032;-94
2023/06/14 10:46:49;;;;;;;0.68;0.63;;;;;;;;;;5032143;28;20033;-94
2023/06/14 10:49:18;;;;;;;0.98;0.63;;;;;;;21.67;79.88;99720.50;5031505;28;20042;-92
2023/06/14 10:51:48;;;;;;;1.02;0.60;;;;;;;21.55;79.41;99735.97;5039505;28;20057;-93
2023/06/14 10:54:13;;;;;;;0.60;0.60;;;;;;;21.73;79.34;99746.66;5004585;28;20029;-92
2023/06/14 10:56:50;;;;;;;0.68;0.68;;;;;;;21.30;82.94;99727.34;5032520;28;20083;-93
2023/06/14 10:59:17;;;;;;;0.65;0.63;;;;;;;21.49;80.55;99744.44;5032578;28;20041;-93
2023/06/14 11:01:52;;;;;;;0.63;0.38;;;;;;;21.47;82.38;99747.03;5015638;28;20033;-93
2023/06/14 11:04:20;;;;;;;0.20;0.20;;;;;;;21.28;86.48;99724.25;5032615;28;20051;-93
2023/06/14 11:06:47;;;;;;;0.70;0.57;;;;;;;21.46;87.64;99756.00;5002007;28;20029;-92
2023/06/14 11:09:19;;;;;;;1.30;1.10;;;;;;;21.53;88.16;99758.28;5010912;28;20053;-93
2023/06/14 11:11:45;;;;;;;0.82;0.52;;;;;;;21.42;87.96;99744.22;5038252;28;20128;-92
2023/06/14 11:14:11;;;;;;;0.85;0.60;;;;;;;21.60;86.28;99752.09;5017202;28;20032;-94
2023/06/14 11:16:37;;;;;;;0.55;0.43;;;;;;;21.13;86.15;99726.63;5021949;28;20055;-92
2023/06/14 11:19:03;;;;;;;0.22;0.22;;;;;;;20.91;90.54;99752.00;5020986;28;20020;-93
2023/06/14 12:34:27;;;;;;;0.32;0.32;;;;;;;19.27;100.00;99742.22;5031208;28;20053;-86
2023/06/14 12:36:55;;;;;;;0.57;0.55;;;;;;;19.31;100.00;99733.53;5007952;28;20044;-86
2023/06/14 12:39:22;;;;;;;1.02;0.60;;;;;;;19.24;100.00;99746.06;5009550;28;20631;-86
2023/06/14 12:41:48;;;;;;;0.45;0.45;;;;;;;19.14;100.00;99730.66;5013110;28;20077;-86
2023/06/14 12:44:14;;;;;;;0.63;0.63;;;;;;;19.24;100.00;99731.22;4990319;28;20437;-87
2023/06/14 12:46:41;;;;;;;1.13;0.70;;;;;;;19.38;100.00;99736.66;5008171;28;20037;-88